createdAt,value
2023-01-13T00:01:19.145Z,98659.83009277229
2023-01-13T00:04:16.655Z,98658.76272504638
2023-01-13T00:07:16.718Z,98663.69724641451
2023-01-13T00:11:16.840Z,98647.32113122538
2023-01-13T00:14:17.052Z,98638.92975245105
2023-01-13T00:17:16.306Z,98634.6862457465
2023-01-13T00:21:17.563Z,98635.13079112131
2023-01-13T00:24:16.033Z,98629.13399457872
2023-01-13T00:27:16.081Z,98627.29661780407
2023-01-13T00:31:18.461Z,98631.98527599586
2023-01-13T00:34:16.273Z,98629.98876870364
2023-01-13T00:37:16.266Z,98634.09374442731
2023-01-13T00:41:17.695Z,98627.93574797813
2023-01-13T00:44:16.082Z,98623.30004162568
2023-01-13T00:47:15.899Z,98619.8766425195
2023-01-13T00:51:19.451Z,98608.93159016561
2023-01-13T00:54:16.732Z,98611.2926924247
2023-01-13T00:57:16.938Z,98614.02756679691
2023-01-13T01:01:18.392Z,98616.27543115048
2023-01-13T01:04:16.461Z,98620.205868791
2023-01-13T01:07:16.331Z,98609.01645046954
2023-01-13T01:11:18.148Z,98614.91110139313
2023-01-13T01:14:15.847Z,98615.5618508933
2023-01-13T01:17:15.831Z,98613.32523706244
2023-01-13T01:21:16.915Z,98607.7826362555
2023-01-13T01:24:16.784Z,98610.20797976923
2023-01-13T01:27:16.736Z,98609.042212559
2023-01-13T01:31:17.746Z,98602.31812574544
2023-01-13T01:34:15.996Z,98607.62551059065
2023-01-13T01:37:16.112Z,98603.97887730847
2023-01-13T01:41:18.989Z,98601.56662645479
2023-01-13T01:44:57.844Z,98616.29083188451
2023-01-13T01:47:18.343Z,98620.19359431467
2023-01-13T01:51:16.316Z,98614.87272460356
2023-01-13T01:54:21.968Z,98624.90072252668
2023-01-13T01:57:22.245Z,98620.90719587187
2023-01-13T02:01:16.071Z,98623.58900073056
2023-01-13T02:04:22.987Z,98623.8177426136
2023-01-13T02:07:17.052Z,98623.34217865407
2023-01-13T02:12:29.930Z,98623.4514797265
2023-01-13T02:14:18.502Z,98621.35136978164
2023-01-13T02:17:27.943Z,98621.52980407236
2023-01-13T02:21:38.027Z,98613.80956743895
2023-01-13T02:31:52.835Z,98604.28110976373
2023-01-13T02:34:22.276Z,98602.08236465145
2023-01-13T02:37:24.528Z,98603.32851327749
2023-01-13T02:51:19.805Z,98584.93796571862
2023-01-13T02:54:20.996Z,98589.26912299286
2023-01-13T02:57:19.689Z,98581.7663455739
2023-01-13T03:01:17.467Z,98582.43153909034
2023-01-13T03:04:46.022Z,98583.58884600867
2023-01-13T03:07:40.160Z,98587.29979032264
2023-01-13T03:11:19.403Z,98587.74847554167
2023-01-13T03:14:28.348Z,98584.27110517514
2023-01-13T03:17:24.586Z,98584.81763193944
2023-01-13T03:21:24.084Z,98567.48017100962
2023-01-13T03:24:21.861Z,98570.51649990291
2023-01-13T03:27:24.249Z,98577.1207559169
2023-01-13T03:31:23.683Z,98561.29529928364
2023-01-13T03:34:21.120Z,98546.02278444394
2023-01-13T03:37:22.991Z,98545.21338074337
2023-01-13T03:41:22.544Z,98546.14769640676
2023-01-13T03:44:30.336Z,98550.87786030117
2023-01-13T03:47:25.899Z,98559.87127903824
2023-01-13T03:51:19.744Z,98568.01539544249
2023-01-13T03:54:18.788Z,98575.53253876511
2023-01-13T03:57:19.621Z,98571.1631138378
2023-01-13T04:01:20.949Z,98575.18904143061
2023-01-13T04:04:21.173Z,98586.57849271798
2023-01-13T04:07:26.491Z,98576.42686144248
2023-01-13T04:11:24.506Z,98574.42283651057
2023-01-13T04:14:20.399Z,98577.0895204384
2023-01-13T04:17:16.242Z,98571.84833323372
2023-01-13T04:21:16.687Z,98572.6694537381
2023-01-13T04:24:17.152Z,98566.76165110558
2023-01-13T04:27:17.108Z,98563.71337413072
2023-01-13T04:31:15.872Z,98557.88692568433
2023-01-13T04:34:16.163Z,98549.3856096745
2023-01-13T04:37:16.258Z,98543.78066622639
2023-01-13T04:41:15.768Z,98554.17742388105
2023-01-13T04:44:16.100Z,98546.11081385534
2023-01-13T04:47:16.192Z,98538.3113036828
2023-01-13T04:51:15.838Z,98544.57408776319
2023-01-13T04:54:16.659Z,98543.74217357115
2023-01-13T04:57:16.311Z,98543.25401169562
2023-01-13T05:01:16.447Z,98538.07507989494
2023-01-13T05:04:17.236Z,98545.8327172979
2023-01-13T05:07:16.517Z,98542.15138151475
2023-01-13T05:25:22.105Z,98538.08316645371
2023-01-13T05:27:18.399Z,98552.67072949774
2023-01-13T05:31:16.893Z,98543.21944546695
2023-01-13T05:34:17.832Z,98543.23911715101
2023-01-13T05:37:17.139Z,98543.35728936685
2023-01-13T05:51:17.140Z,98550.54136615034
2023-01-13T05:54:16.909Z,98557.6936261798
2023-01-13T05:57:16.636Z,98551.81747942882
2023-01-13T06:01:16.329Z,98550.24377260126
2023-01-13T06:04:16.547Z,98566.41564819956
2023-01-13T06:07:16.450Z,98573.40518365754
2023-01-13T06:11:16.560Z,98577.27168308542
2023-01-13T06:14:16.713Z,98574.86802350271
2023-01-13T06:17:16.715Z,98568.89483872194
2023-01-13T06:21:16.360Z,98578.60328301965
2023-01-13T06:24:16.833Z,98577.27168308542
2023-01-13T06:27:17.713Z,98587.05868947196
2023-01-13T06:31:17.934Z,98592.06064905431
2023-01-13T06:34:16.993Z,98597.17800877469
2023-01-13T06:37:20.205Z,98601.17302972244
2023-01-13T06:41:17.716Z,98610.34193830659
2023-01-13T06:44:19.075Z,98608.40222104215
2023-01-13T06:47:16.987Z,98598.30750483954
2023-01-13T06:51:16.745Z,98591.24410583834
2023-01-13T06:54:17.336Z,98576.47658972442
2023-01-13T06:57:17.115Z,98578.68619428444
2023-01-13T07:01:17.269Z,98577.02099566533
2023-01-13T07:04:17.483Z,98581.14413867774
2023-01-13T07:07:17.450Z,98577.23210728184
2023-01-13T07:11:16.369Z,98572.3298011337
2023-01-13T07:15:22.720Z,98573.12866094167
2023-01-13T07:17:16.676Z,98572.74205791214
2023-01-13T07:21:20.537Z,98574.36107862336
2023-01-13T07:24:16.681Z,98580.00503173064
2023-01-13T07:27:16.724Z,98572.36638270653
2023-01-13T07:31:19.436Z,98577.84535933282
2023-01-13T07:34:16.252Z,98580.03866988416
2023-01-13T07:37:16.167Z,98579.00551489848
2023-01-13T07:51:16.849Z,98584.26360957633
2023-01-13T07:54:17.207Z,98586.26623320924
2023-01-13T07:57:17.446Z,98590.4470221775
2023-01-13T08:11:17.041Z,98601.7931898726
2023-01-13T08:14:16.796Z,98598.8092309355
2023-01-13T08:17:18.652Z,98599.67530617867
2023-01-13T08:21:16.598Z,98599.1553812978
2023-01-13T08:24:16.792Z,98600.1907203908
2023-01-13T08:27:16.785Z,98603.93921916882
2023-01-13T08:31:17.001Z,98604.96005680159
2023-01-13T08:34:16.633Z,98605.72377632314
2023-01-13T08:37:16.512Z,98613.1680207638
2023-01-13T08:41:16.511Z,98619.90947087585
2023-01-13T08:44:16.281Z,98623.34731391932
2023-01-13T08:47:16.202Z,98623.62126293073
2023-01-13T08:51:16.612Z,98630.09315626552
2023-01-13T08:54:18.157Z,98632.0355086425
2023-01-13T08:57:17.379Z,98635.04498381032
2023-01-13T09:01:21.651Z,98640.96648152365
2023-01-13T09:04:19.850Z,98629.00084936093
2023-01-13T09:07:17.236Z,98638.91011773405
2023-01-13T09:13:13.407Z,98648.15121241735
2023-01-13T09:14:18.077Z,98649.17732155716
2023-01-13T09:17:17.321Z,98653.31150597532
2023-01-13T09:21:17.565Z,98662.03057508676
2023-01-13T09:24:16.699Z,98661.83023407671
2023-01-13T09:27:16.792Z,98662.76724155557
2023-01-13T09:31:15.896Z,98659.5901668047
2023-01-13T09:35:21.286Z,98659.90754136226
2023-01-13T09:37:16.440Z,98656.68052767694
2023-01-13T09:43:59.151Z,98645.76737515553
2023-01-13T09:44:23.256Z,98646.67179654994
2023-01-13T09:47:24.493Z,98643.36083214362
2023-01-13T09:51:26.806Z,98636.62516939249
2023-01-13T09:54:30.812Z,98635.97511775118
2023-01-13T09:57:18.816Z,98641.94452116797
2023-01-13T10:01:23.896Z,98639.8803957787
2023-01-13T10:04:16.940Z,98630.70538684128
2023-01-13T10:07:16.811Z,98627.00267827073
2023-01-13T10:21:37.423Z,98614.68639434509
2023-01-13T10:24:24.790Z,98609.90647942993
2023-01-13T10:27:24.277Z,98609.88093744974
2023-01-13T10:31:19.639Z,98606.07488578427
2023-01-13T10:34:18.246Z,98597.47543447092
2023-01-13T10:37:21.914Z,98593.8785542722
2023-01-13T10:41:22.729Z,98575.94640667719
2023-01-13T10:44:17.776Z,98575.87446850253
2023-01-13T10:47:21.782Z,98574.80642517669
2023-01-13T10:51:23.994Z,98564.1511184859
2023-01-13T10:54:20.604Z,98559.58634594081
2023-01-13T10:57:20.152Z,98554.66526175686
2023-01-13T11:01:25.430Z,98551.43552735462
2023-01-13T11:04:28.922Z,98550.07602018805
2023-01-13T11:07:23.121Z,98548.89658484097
2023-01-13T11:11:43.282Z,98538.65015849336
2023-01-13T11:14:50.327Z,98518.40198993798
2023-01-13T11:17:29.987Z,98523.33017383295
2023-01-13T11:21:22.002Z,98524.68840779313
2023-01-13T11:24:22.826Z,98514.24925128666
2023-01-13T11:27:22.821Z,98513.20019885461
2023-01-13T11:31:23.418Z,98510.12351832076
2023-01-13T11:34:27.488Z,98515.26773392892
2023-01-13T11:37:22.183Z,98509.17551500129
2023-01-13T11:41:27.945Z,98519.57935579505
2023-01-13T11:44:21.944Z,98504.63384255872
2023-01-13T11:47:20.236Z,98503.22053652488
2023-01-13T11:51:31.499Z,98501.00364293653
2023-01-13T11:54:32.090Z,98496.95835683243
2023-01-13T11:57:34.375Z,98492.56431794511
2023-01-13T12:01:33.933Z,98480.59802935566
2023-01-13T12:04:25.569Z,98467.58905438964
2023-01-13T12:07:23.154Z,98462.08081352401
2023-01-13T12:11:23.701Z,98445.8437475554
2023-01-13T12:14:24.704Z,98455.47187081106
2023-01-13T12:17:26.105Z,98464.69307697048
2023-01-13T12:21:20.862Z,98460.73505723645
2023-01-13T12:24:25.292Z,98462.14944827861
2023-01-13T12:27:35.183Z,98457.7454620486
2023-01-13T12:31:20.339Z,98455.8883968192
2023-01-13T12:34:32.576Z,98453.93437659081
2023-01-13T12:37:25.543Z,98442.4944395182
2023-01-13T12:41:33.781Z,98443.40498785912
2023-01-13T12:44:17.904Z,98442.50128349016
2023-01-13T12:47:34.578Z,98434.38804847468
2023-01-13T12:51:22.632Z,98431.97446015762
2023-01-13T12:55:00.519Z,98433.00104338775
2023-01-13T12:57:21.641Z,98423.20351825804
2023-01-13T13:01:16.805Z,98415.97754253888
2023-01-13T13:04:19.076Z,98418.80732159769
2023-01-13T13:07:21.204Z,98414.07819225885
2023-01-13T13:13:39.391Z,98412.28717248993
2023-01-13T13:15:02.269Z,98411.18281443509
2023-01-13T13:17:39.848Z,98415.52935704161
2023-01-13T13:21:16.983Z,98410.12289890161
2023-01-13T13:24:18.495Z,98414.20746308612
2023-01-13T13:27:18.236Z,98412.52881947196
2023-01-13T13:31:29.460Z,98412.91420221976
2023-01-13T13:34:27.906Z,98415.43227297618
2023-01-13T13:37:31.856Z,98412.72772350958
2023-01-13T13:51:25.011Z,98428.4388268312
2023-01-13T13:54:20.412Z,98441.84205062823
2023-01-13T13:57:18.553Z,98438.41934882727
2023-01-13T14:01:24.530Z,98436.40431473256
2023-01-13T14:04:20.116Z,98442.39338299808
2023-01-13T14:07:20.442Z,98445.30391367397
2023-01-13T14:11:25.854Z,98454.77182848155
2023-01-13T14:14:21.343Z,98455.20279195518
2023-01-13T14:17:20.120Z,98457.36183563792
2023-01-13T14:21:19.423Z,98447.81568688358
2023-01-13T14:24:17.743Z,98445.20423218829
2023-01-13T14:27:18.124Z,98443.75988054977
2023-01-13T14:31:16.923Z,98428.9776792424
2023-01-13T14:34:32.705Z,98420.80644211927
2023-01-13T14:37:29.406Z,98410.45275162598
2023-01-13T14:41:20.053Z,98405.29804579608
2023-01-13T14:44:23.591Z,98399.83907994846
2023-01-13T14:47:21.119Z,98405.73934844433
2023-01-13T14:51:27.396Z,98408.7334616107
2023-01-13T14:54:51.752Z,98410.9073719845
2023-01-13T14:57:26.106Z,98402.73442897461
2023-01-13T15:01:35.392Z,98406.07903384003
2023-01-13T15:04:23.144Z,98411.6369446358
2023-01-13T15:07:25.479Z,98412.87822495143
2023-01-13T15:11:24.908Z,98421.92158804764
2023-01-13T15:14:23.505Z,98428.57793327048
2023-01-13T15:17:17.382Z,98432.10496465584
2023-01-13T15:21:17.088Z,98424.32025837152
2023-01-13T15:24:17.003Z,98418.54742540276
2023-01-13T15:27:20.944Z,98422.05803784612
2023-01-13T15:31:16.860Z,98411.71370929494
2023-01-13T15:34:16.833Z,98410.27400687525
2023-01-13T15:37:17.281Z,98406.33373486069
2023-01-13T15:41:17.305Z,98404.12371638308
2023-01-13T16:11:16.190Z,98397.20831524077
2023-01-13T16:14:16.387Z,98398.57448082695
2023-01-13T16:17:19.443Z,98397.87667502357
2023-01-13T16:21:19.821Z,98392.28339176871
2023-01-13T16:24:18.681Z,98395.25866713977
2023-01-13T16:27:19.515Z,98393.82155201065
2023-01-13T16:31:24.252Z,98384.71312409805
2023-01-13T16:34:17.661Z,98380.06078776959
2023-01-13T16:37:20.133Z,98379.07062813034
2023-01-13T16:41:15.956Z,98369.05014073056
2023-01-13T16:44:16.323Z,98377.04340967191
2023-01-13T16:47:20.681Z,98375.55685304728
2023-01-13T16:51:17.060Z,98368.50369373424
2023-01-13T16:54:17.317Z,98371.56789819758
2023-01-13T16:57:16.588Z,98376.63997345013
2023-01-13T17:01:24.862Z,98376.82405377636
2023-01-13T17:04:21.297Z,98387.20387280302
2023-01-13T17:07:17.738Z,98395.13428652477
2023-01-13T17:11:16.129Z,98405.0882747855
2023-01-13T17:14:19.314Z,98398.62547782427
2023-01-13T17:17:21.798Z,98386.0216208315
2023-01-13T17:21:16.918Z,98361.68839097215
2023-01-13T17:24:17.269Z,98385.55897966435
2023-01-13T17:27:21.292Z,98394.93381517688
2023-01-13T17:31:16.397Z,98387.27107463218
2023-01-13T17:34:21.347Z,98385.25152480848
2023-01-13T17:37:17.028Z,98393.44436152258
2023-01-13T17:41:16.634Z,98394.08955548736
2023-01-13T17:44:18.681Z,98400.52429860434
2023-01-13T17:47:17.048Z,98398.54618431992
2023-01-13T17:51:18.626Z,98400.29847985697
2023-01-13T17:54:17.382Z,98403.12573433321
2023-01-13T17:57:16.536Z,98410.42269676713
2023-01-13T18:01:21.421Z,98407.67602495261
2023-01-13T18:04:40.921Z,98410.01861022861
2023-01-13T18:07:18.905Z,98409.18767101964
2023-01-13T18:11:35.429Z,98401.71169037778
2023-01-13T18:14:23.003Z,98407.23987690892
2023-01-13T18:17:23.697Z,98412.17652241816
2023-01-13T18:31:32.678Z,98419.07563659761
2023-01-13T18:34:35.249Z,98418.47527337988
2023-01-13T18:37:44.397Z,98427.52818708609
2023-01-13T18:51:29.018Z,98432.09917055264
2023-01-13T18:54:17.215Z,98430.96608528687
2023-01-13T18:57:17.900Z,98428.41882775538
2023-01-13T19:01:27.049Z,98432.40761695357
2023-01-13T19:04:22.919Z,98445.0530500569
2023-01-13T19:07:29.434Z,98454.77081083802
2023-01-13T19:11:26.761Z,98440.68785105112
2023-01-13T19:21:15.906Z,98444.63014242632
2023-01-13T19:24:16.185Z,98438.45092378573
2023-01-13T19:27:18.298Z,98444.3686079335
2023-01-13T19:31:17.278Z,98448.26338834988
2023-01-13T19:34:16.902Z,98451.64011438948
2023-01-13T19:37:17.878Z,98451.99051246031
2023-01-13T19:45:26.754Z,98451.7141212248
2023-01-13T19:47:17.942Z,98459.30118877733
2023-01-13T19:51:16.116Z,98455.62329001485
2023-01-13T19:54:16.296Z,98453.5020629545
2023-01-13T19:57:16.405Z,98449.8160349974
2023-01-13T20:01:16.897Z,98457.9540172037
2023-01-13T20:04:19.477Z,98450.00060837773
2023-01-13T20:07:16.936Z,98450.56754312749
2023-01-13T20:11:26.082Z,98454.82420224337
2023-01-13T20:14:17.403Z,98446.08939713414
2023-01-13T20:17:19.715Z,98442.04817668
2023-01-13T20:21:17.264Z,98435.47282096249
2023-01-13T20:24:17.624Z,98434.10429766256
2023-01-13T20:27:17.263Z,98437.92039823279
2023-01-13T20:31:16.275Z,98444.4107232943
2023-01-13T20:34:19.304Z,98444.50463699806
2023-01-13T20:37:17.114Z,98453.521038576
2023-01-13T20:51:16.555Z,98450.25483041085
2023-01-13T20:54:17.259Z,98448.59609539922
2023-01-13T20:57:17.690Z,98447.23777901668
2023-01-13T21:01:16.783Z,98449.77702930104
2023-01-13T21:04:17.102Z,98445.93542830776
2023-01-13T21:07:17.923Z,98449.45337687037
2023-01-13T21:15:18.247Z,98453.73286284033
2023-01-13T21:19:07.460Z,98450.88247197976
2023-01-13T21:21:16.797Z,98456.08434292191
2023-01-13T21:24:16.896Z,98458.74393358298
2023-01-13T21:27:17.044Z,98462.46131096111
2023-01-13T21:31:17.663Z,98460.72063927387
2023-01-13T21:34:17.077Z,98455.87181980984
2023-01-13T21:37:17.867Z,98457.64430778596
2023-01-13T21:46:17.656Z,98453.91971900975
2023-01-13T21:47:49.681Z,98450.66359487594
2023-01-13T21:51:16.686Z,98448.76159601466
2023-01-13T21:54:17.083Z,98445.63579385701
2023-01-13T21:57:17.108Z,98443.18408918599
2023-01-13T22:01:18.667Z,98443.09813152182
2023-01-13T22:04:22.323Z,98444.91054197536
2023-01-13T22:07:17.898Z,98448.02733529793
2023-01-13T22:11:16.872Z,98450.1202710426
2023-01-13T22:14:16.792Z,98453.79045767307
2023-01-13T22:17:18.403Z,98460.85362089811
2023-01-13T22:21:16.194Z,98456.49643860135
2023-01-13T22:24:16.833Z,98458.93951979664
2023-01-13T22:27:18.088Z,98462.77975683914
2023-01-13T22:31:18.028Z,98468.51108213441
2023-01-13T22:34:16.606Z,98467.02514762504
2023-01-13T22:37:16.577Z,98473.08084617545
2023-01-13T22:41:15.920Z,98475.46181713737
2023-01-13T22:44:16.286Z,98468.58809122001
2023-01-13T22:47:16.143Z,98465.93073136205
2023-01-13T22:51:16.557Z,98462.24317477981
2023-01-13T22:54:17.297Z,98449.59677785264
2023-01-13T22:57:16.671Z,98457.9785005213
2023-01-13T23:01:17.086Z,98459.00362799718
2023-01-13T23:04:16.926Z,98463.13105983332
2023-01-13T23:07:17.786Z,98454.49732850718
2023-01-13T23:11:18.103Z,98459.48681434001
2023-01-13T23:14:16.484Z,98460.02672450597
2023-01-13T23:17:16.443Z,98460.78813202215
2023-01-13T23:21:19.127Z,98457.58983646795
2023-01-13T23:24:16.991Z,98453.73624671306
2023-01-13T23:27:16.859Z,98445.4042058456
2023-01-13T23:31:19.337Z,98442.11202574633
2023-01-13T23:34:16.361Z,98440.40064556188
2023-01-13T23:37:16.279Z,98441.8346448585
2023-01-13T23:41:18.318Z,98435.8369967074
2023-01-13T23:44:16.621Z,98431.21839079703
2023-01-13T23:47:16.208Z,98428.82438448635
2023-01-13T23:51:16.587Z,98423.1064113489
2023-01-13T23:54:16.805Z,98419.1829932406
2023-01-13T23:57:16.561Z,98415.37242847432
